Time;durP1;ratioP1;P1;durP2;ratioP2;P2;SDS_P1;SDS_P2;PMS_P1;PMS_P2;Temp;Humidity;BMP_temperature;BMP_pressure;BME280_temperature;BME280_humidity;BME280_pressure;Samples;Min_cycle;Max_cycle;Signal;HPM_P1;HPM_P2
2022/10/08 00:01:07;;;;;;;19.65;4.32;;;;;;;11.69;100.00;101471.69;5072217;28;20447;-66
2022/10/08 00:03:36;;;;;;;19.92;4.25;;;;;;;11.70;100.00;101460.22;5074144;28;20035;-66
2022/10/08 00:06:12;;;;;;;20.48;4.35;;;;;;;11.70;100.00;101468.16;5074583;28;20438;-67
2022/10/08 00:08:40;;;;;;;20.77;4.25;;;;;;;11.69;100.00;101466.38;5073677;28;20066;-67
2022/10/08 00:11:08;;;;;;;21.60;4.60;;;;;;;11.71;100.00;101462.00;5067464;28;20502;-64
2022/10/08 00:13:41;;;;;;;20.23;4.15;;;;;;;11.74;100.00;101462.03;5071737;28;20048;-64
2022/10/08 00:16:14;;;;;;;19.13;4.25;;;;;;;11.76;100.00;101462.06;5074298;28;20028;-64
2022/10/08 00:18:41;;;;;;;21.08;4.18;;;;;;;11.81;100.00;101466.53;5074202;28;20467;-64
2022/10/08 00:21:13;;;;;;;19.95;4.32;;;;;;;11.81;100.00;101469.16;5073954;28;20028;-64
2022/10/08 00:23:38;;;;;;;19.52;4.38;;;;;;;11.84;100.00;101466.53;5072413;28;20043;-64
2022/10/08 00:26:05;;;;;;;20.40;4.43;;;;;;;11.91;100.00;101471.88;5073999;28;20459;-64
2022/10/08 00:28:32;;;;;;;19.10;4.20;;;;;;;11.92;100.00;101469.25;5074357;28;20035;-64
2022/10/08 00:31:05;;;;;;;20.48;4.30;;;;;;;11.92;100.00;101468.38;5074422;28;20025;-63
2022/10/08 00:33:30;;;;;;;19.80;4.28;;;;;;;11.93;100.00;101467.50;5073010;28;20024;-64
2022/10/08 00:35:59;;;;;;;19.52;4.30;;;;;;;11.92;100.00;101460.44;5074117;28;20036;-64
2022/10/08 00:38:25;;;;;;;20.40;4.35;;;;;;;11.97;100.00;101461.38;5070431;28;20056;-63
2022/10/08 00:40:50;;;;;;;20.20;4.47;;;;;;;11.93;100.00;101464.84;5073848;28;20056;-65
2022/10/08 00:43:16;;;;;;;19.02;4.18;;;;;;;11.97;100.00;101472.88;5071895;28;20036;-64
2022/10/08 00:45:46;;;;;;;19.83;4.10;;;;;;;11.99;100.00;101464.94;5073418;28;20070;-65
2022/10/08 00:48:19;;;;;;;20.88;4.28;;;;;;;11.99;100.00;101473.75;5073691;28;20103;-65
2022/10/08 00:50:46;;;;;;;22.25;4.70;;;;;;;11.98;100.00;101464.03;5073007;28;20447;-66
2022/10/08 00:53:11;;;;;;;19.77;4.20;;;;;;;12.00;100.00;101469.38;5073356;28;20425;-65
2022/10/08 00:55:40;;;;;;;19.77;4.20;;;;;;;11.99;100.00;101472.88;5073531;28;20021;-64
2022/10/08 00:58:16;;;;;;;22.27;4.60;;;;;;;12.00;100.00;101479.97;5073353;28;20079;-63
2022/10/08 01:00:41;;;;;;;18.90;4.15;;;;;;;12.00;100.00;101483.50;5071985;28;20024;-66
2022/10/08 01:03:07;;;;;;;17.85;3.95;;;;;;;12.00;100.00;101488.78;5069618;28;20471;-64
2022/10/08 01:05:41;;;;;;;21.73;4.80;;;;;;;12.01;100.00;101479.97;5073271;28;20021;-66
2022/10/08 01:08:14;;;;;;;22.42;4.40;;;;;;;12.06;100.00;101487.06;5073244;28;20058;-66
2022/10/08 01:10:54;;;;;;;17.90;4.10;;;;;;;12.07;100.00;101495.00;5072870;28;20024;-62
2022/10/08 01:13:37;;;;;;;19.40;4.40;;;;;;;12.06;100.00;101506.50;5070696;28;20091;-64
2022/10/08 01:16:23;;;;;;;20.85;4.60;;;;;;;11.95;100.00;101516.13;5072849;28;20056;-66
2022/10/08 01:19:20;;;;;;;20.55;4.97;;;;;;;11.51;100.00;101520.94;5071305;28;20111;-66
2022/10/08 01:22:13;;;;;;;21.52;5.05;;;;;;;11.41;100.00;101508.47;5070067;28;20032;-66
2022/10/08 01:27:44;;;;;;;21.08;5.75;;;;;;;11.05;100.00;101514.19;5072254;28;20382;-66
2022/10/08 01:30:13;;;;;;;20.08;5.82;;;;;;;11.00;100.00;101503.56;5073040;28;20029;-66
2022/10/08 01:32:51;;;;;;;22.27;5.95;;;;;;;10.97;100.00;101500.88;5072184;28;20028;-66
2022/10/08 01:35:24;;;;;;;22.30;6.40;;;;;;;10.90;100.00;101499.91;5070161;28;20215;-65
2022/10/08 01:37:54;;;;;;;20.75;5.53;;;;;;;10.86;100.00;101506.00;5070431;28;20028;-65
2022/10/08 01:40:26;;;;;;;21.73;5.80;;;;;;;10.81;100.00;101500.66;5070502;28;20062;-66
2022/10/08 01:42:53;;;;;;;21.58;5.57;;;;;;;10.76;100.00;101498.81;5069386;28;20128;-66
2022/10/08 01:45:23;;;;;;;21.45;5.85;;;;;;;10.72;100.00;101495.25;5068587;28;20026;-66
2022/10/08 01:47:53;;;;;;;20.30;5.75;;;;;;;10.69;100.00;101502.25;5070276;28;20036;-65
2022/10/08 01:50:25;;;;;;;22.85;6.25;;;;;;;10.64;100.00;101507.47;5072992;28;20017;-66
2022/10/08 01:53:00;;;;;;;19.92;5.43;;;;;;;10.61;100.00;101510.06;5072168;28;20040;-65
2022/10/08 01:55:37;;;;;;;20.83;6.00;;;;;;;10.62;100.00;101507.44;5072191;28;20032;-66
2022/10/08 01:58:08;;;;;;;19.98;5.45;;;;;;;10.57;100.00;101508.25;5072248;28;20020;-66
2022/10/08 02:00:35;;;;;;;21.23;5.95;;;;;;;10.54;100.00;101516.13;5072380;28;20024;-66
2022/10/08 02:03:00;;;;;;;20.20;5.30;;;;;;;10.48;100.00;101527.50;5072172;28;20100;-65
2022/10/08 02:05:31;;;;;;;19.27;5.50;;;;;;;10.41;100.00;101521.25;5072800;28;20127;-66
2022/10/08 02:07:56;;;;;;;22.27;5.55;;;;;;;10.32;100.00;101520.16;5069315;28;20118;-66
2022/10/08 02:10:24;;;;;;;20.38;5.50;;;;;;;10.26;100.00;101529.75;5071601;28;20078;-66
2022/10/08 02:12:50;;;;;;;20.38;5.88;;;;;;;10.23;100.00;101515.63;5071674;28;20050;-64
2022/10/08 02:15:42;;;;;;;20.80;5.45;;;;;;;10.19;100.00;101521.72;5071998;28;20024;-66
2022/10/08 02:18:13;;;;;;;29.42;5.60;;;;;;;10.11;100.00;101518.94;5070321;28;20020;-65
2022/10/08 02:21:02;;;;;;;20.88;5.70;;;;;;;10.07;100.00;101509.19;5071915;28;20025;-65
2022/10/08 02:23:33;;;;;;;20.58;5.07;;;;;;;10.06;100.00;101505.66;5071453;28;20054;-66
2022/10/08 02:26:02;;;;;;;19.20;4.30;;;;;;;10.04;100.00;101510.00;5072163;28;20025;-66
2022/10/08 02:28:44;;;;;;;18.13;4.45;;;;;;;9.96;100.00;101522.22;5072154;28;20047;-64
2022/10/08 02:31:36;;;;;;;21.63;4.38;;;;;;;9.93;100.00;101511.56;5070405;28;20407;-66
2022/10/08 02:34:07;;;;;;;19.15;4.40;;;;;;;9.96;100.00;101519.59;5069583;28;20379;-65
2022/10/08 02:36:40;;;;;;;18.63;4.50;;;;;;;9.92;100.00;101521.25;5069804;28;20024;-65
2022/10/08 02:39:09;;;;;;;19.48;4.30;;;;;;;9.87;100.00;101522.94;5070118;28;20035;-66
2022/10/08 02:41:41;;;;;;;20.27;4.65;;;;;;;9.86;100.00;101525.53;5069552;28;20025;-63
2022/10/08 02:44:11;;;;;;;21.42;4.63;;;;;;;9.88;100.00;101518.53;5069517;28;20028;-66
2022/10/08 02:46:40;;;;;;;20.17;4.80;;;;;;;9.83;100.00;101520.19;5068710;28;20028;-64
2022/10/08 02:49:23;;;;;;;18.88;4.53;;;;;;;9.82;100.00;101515.81;5069642;28;20036;-66
2022/10/08 02:51:50;;;;;;;19.42;4.55;;;;;;;9.79;100.00;101518.38;5071841;28;20021;-64
2022/10/08 02:54:19;;;;;;;18.08;4.40;;;;;;;9.76;100.00;101513.94;5069137;28;20085;-62
2022/10/08 02:56:57;;;;;;;19.60;4.45;;;;;;;9.74;100.00;101507.72;5071384;28;20052;-65
2022/10/08 02:59:24;;;;;;;18.52;4.32;;;;;;;9.70;100.00;101512.06;5070208;28;20021;-65
2022/10/08 03:01:56;;;;;;;18.75;4.25;;;;;;;9.64;100.00;101514.59;5071807;28;20040;-65
2022/10/08 03:04:27;;;;;;;18.05;4.20;;;;;;;9.61;100.00;101514.53;5071148;28;20029;-66
2022/10/08 03:06:53;;;;;;;19.15;4.45;;;;;;;9.61;100.00;101509.25;5071684;28;20028;-66
2022/10/08 03:09:21;;;;;;;19.15;4.00;;;;;;;9.63;100.00;101520.72;5071251;28;20382;-66
2022/10/08 03:11:47;;;;;;;19.83;4.38;;;;;;;9.64;100.00;101519.88;5071491;28;20051;-66
2022/10/08 03:14:15;;;;;;;21.45;4.50;;;;;;;9.64;100.00;101524.25;5074155;28;20032;-65
2022/10/08 03:16:43;;;;;;;20.20;4.53;;;;;;;9.63;100.00;101515.44;5075402;28;20017;-66
2022/10/08 03:19:10;;;;;;;20.33;4.88;;;;;;;9.65;100.00;101529.56;5075468;28;20021;-66
2022/10/08 03:21:38;;;;;;;19.33;4.80;;;;;;;9.62;100.00;101526.84;5075066;28;20028;-65
2022/10/08 03:24:08;;;;;;;20.50;4.80;;;;;;;9.64;100.00;101522.53;5073441;28;20021;-63
2022/10/08 03:26:34;;;;;;;20.42;5.03;;;;;;;9.64;100.00;101527.81;5075074;28;20071;-63
2022/10/08 03:28:59;;;;;;;20.48;4.95;;;;;;;9.64;100.00;101527.81;5075448;28;20044;-63
2022/10/08 03:31:24;;;;;;;19.20;4.53;;;;;;;9.65;100.00;101534.84;5075470;28;20067;-63
2022/10/08 03:33:51;;;;;;;18.95;4.90;;;;;;;9.65;100.00;101537.47;5073952;28;20099;-63
2022/10/08 03:36:18;;;;;;;21.38;5.13;;;;;;;9.68;100.00;101542.81;5073215;28;20064;-64
2022/10/08 03:38:43;;;;;;;19.23;4.78;;;;;;;9.69;100.00;101552.53;5074669;28;20048;-63
2022/10/08 03:41:09;;;;;;;18.83;4.88;;;;;;;9.69;100.00;101541.97;5075324;28;20056;-63
2022/10/08 03:43:34;;;;;;;20.52;5.25;;;;;;;9.65;100.00;101542.75;5074672;28;20025;-65
2022/10/08 03:46:00;;;;;;;19.85;5.03;;;;;;;9.64;100.00;101551.56;5072221;28;20021;-64
2022/10/08 03:48:26;;;;;;;19.33;5.20;;;;;;;9.60;100.00;101561.16;5075109;28;20471;-63
2022/10/08 03:51:00;;;;;;;22.35;5.32;;;;;;;9.54;100.00;101557.53;5074949;28;20024;-64
2022/10/08 03:53:26;;;;;;;19.10;5.70;;;;;;;9.53;100.00;101553.09;5074595;28;20536;-63
2022/10/08 03:55:51;;;;;;;21.42;5.85;;;;;;;9.51;100.00;101560.97;5072990;28;20068;-65
2022/10/08 03:58:17;;;;;;;21.65;5.40;;;;;;;9.46;100.00;101562.63;5074651;28;20056;-63
2022/10/08 04:00:42;;;;;;;20.95;6.03;;;;;;;9.39;100.00;101555.44;5074493;28;20036;-64
2022/10/08 04:03:08;;;;;;;20.83;5.72;;;;;;;9.36;100.00;101561.56;5074236;28;20031;-64
2022/10/08 04:05:34;;;;;;;20.05;6.22;;;;;;;9.35;100.00;101564.13;5074613;28;20027;-64
2022/10/08 04:07:59;;;;;;;21.70;6.53;;;;;;;9.30;100.00;101558.78;5074557;28;20088;-64
2022/10/08 04:10:24;;;;;;;21.38;6.72;;;;;;;9.33;100.00;101560.59;5074034;28;20036;-65
2022/10/08 04:12:50;;;;;;;22.00;6.72;;;;;;;9.38;100.00;101574.78;5073952;28;20048;-64
2022/10/08 04:15:15;;;;;;;22.35;7.50;;;;;;;9.43;100.00;101568.72;5072915;28;20510;-64
2022/10/08 04:17:41;;;;;;;22.02;7.55;;;;;;;9.50;100.00;101566.22;5074212;28;20028;-64
2022/10/08 04:20:06;;;;;;;24.48;9.10;;;;;;;9.55;100.00;101572.47;5074399;28;20074;-64
2022/10/08 04:22:32;;;;;;;24.80;9.02;;;;;;;9.59;100.00;101571.69;5074244;28;20032;-65
2022/10/08 04:24:57;;;;;;;26.40;10.50;;;;;;;9.65;100.00;101571.78;5072302;28;20028;-63
2022/10/08 04:27:23;;;;;;;27.55;11.82;;;;;;;9.70;100.00;101572.78;5074518;28;20426;-64
2022/10/08 04:29:48;;;;;;;31.42;15.63;;;;;;;9.74;100.00;101569.34;5073966;28;20113;-64
2022/10/08 04:32:14;;;;;;;32.50;16.70;;;;;;;9.81;100.00;101582.66;5072536;28;20159;-64
2022/10/08 04:34:39;;;;;;;32.20;16.80;;;;;;;9.84;100.00;101580.97;5073134;28;20150;-64
2022/10/08 04:37:05;;;;;;;37.83;20.25;;;;;;;9.90;100.00;101593.41;5074063;28;20099;-64
2022/10/08 04:39:30;;;;;;;36.40;20.70;;;;;;;9.91;100.00;101587.25;5074182;28;20095;-63
2022/10/08 04:41:55;;;;;;;38.25;21.25;;;;;;;9.94;100.00;101590.84;5073806;28;20024;-64
2022/10/08 04:44:21;;;;;;;40.65;21.45;;;;;;;9.97;100.00;101590.00;5073569;28;20025;-64
2022/10/08 04:46:46;;;;;;;40.67;22.73;;;;;;;9.99;100.00;101598.88;5073685;28;20031;-63
2022/10/08 04:49:11;;;;;;;40.35;22.92;;;;;;;10.00;100.00;101592.69;5073765;28;20020;-63
2022/10/08 04:51:37;;;;;;;45.90;25.40;;;;;;;10.05;100.00;101598.97;5074043;28;20034;-64
2022/10/08 04:54:02;;;;;;;46.20;25.13;;;;;;;10.07;100.00;101606.94;5073279;28;20039;-63
2022/10/08 04:56:30;;;;;;;47.92;27.25;;;;;;;10.09;100.00;101608.75;5073387;28;20151;-64
2022/10/08 04:58:58;;;;;;;53.33;29.45;;;;;;;10.12;100.00;101614.09;5073121;28;20103;-66
2022/10/08 05:01:24;;;;;;;58.03;31.73;;;;;;;10.17;100.00;101618.56;5073996;28;20082;-65
2022/10/08 05:03:52;;;;;;;55.13;31.02;;;;;;;10.21;100.00;101623.94;5072978;28;20075;-64
2022/10/08 05:06:20;;;;;;;62.60;32.83;;;;;;;10.23;100.00;101616.91;5073384;28;20486;-66
2022/10/08 05:08:46;;;;;;;64.35;32.88;;;;;;;10.22;100.00;101614.25;5073434;28;20028;-64
2022/10/08 05:11:12;;;;;;;65.60;35.03;;;;;;;10.24;100.00;101623.97;5072113;28;20025;-66
2022/10/08 05:13:38;;;;;;;62.00;35.03;;;;;;;10.25;100.00;101624.84;5072749;28;20379;-64
2022/10/08 05:16:09;;;;;;;63.60;35.85;;;;;;;10.26;100.00;101627.53;5073415;28;20021;-63
2022/10/08 05:18:35;;;;;;;67.68;36.05;;;;;;;10.27;100.00;101634.59;5073324;28;20020;-64
2022/10/08 05:21:05;;;;;;;66.00;35.90;;;;;;;10.25;100.00;101628.41;5073073;28;20021;-64
2022/10/08 05:23:31;;;;;;;64.82;34.47;;;;;;;10.25;100.00;101631.06;5072204;28;20367;-64
2022/10/08 05:25:56;;;;;;;62.67;36.72;;;;;;;10.24;100.00;101631.03;5073028;28;20050;-65
2022/10/08 05:28:22;;;;;;;67.60;37.50;;;;;;;10.26;100.00;101632.81;5073203;28;20028;-66
2022/10/08 05:30:47;;;;;;;72.90;39.35;;;;;;;10.27;100.00;101631.97;5073138;28;20066;-66
2022/10/08 05:33:12;;;;;;;72.72;38.20;;;;;;;10.30;100.00;101632.00;5072191;28;20162;-66
2022/10/08 05:35:38;;;;;;;73.50;38.95;;;;;;;10.31;100.00;101635.56;5072021;28;20017;-65
2022/10/08 05:38:03;;;;;;;72.43;38.05;;;;;;;10.27;100.00;101645.16;5072834;28;20372;-63
2022/10/08 05:40:29;;;;;;;75.78;39.47;;;;;;;10.23;100.00;101638.03;5072672;28;20033;-65
2022/10/08 05:42:55;;;;;;;72.47;37.95;;;;;;;10.21;100.00;101644.19;5072612;28;20031;-64
2022/10/08 05:45:21;;;;;;;70.60;37.70;;;;;;;10.21;100.00;101650.34;5072872;28;20020;-64
2022/10/08 05:47:47;;;;;;;73.10;37.20;;;;;;;10.22;100.00;101653.88;5072322;28;20031;-64
2022/10/08 05:50:12;;;;;;;70.10;37.40;;;;;;;10.20;100.00;101655.59;5072770;28;20023;-66
2022/10/08 05:52:38;;;;;;;76.28;38.53;;;;;;;10.21;100.00;101667.97;5071045;28;20521;-65
2022/10/08 05:55:04;;;;;;;72.57;37.42;;;;;;;10.18;100.00;101658.22;5072065;28;20166;-65
2022/10/08 05:57:29;;;;;;;83.20;39.17;;;;;;;10.17;100.00;101674.94;5071389;28;20025;-65
2022/10/08 05:59:54;;;;;;;74.85;38.83;;;;;;;10.16;100.00;101681.06;5072103;28;20414;-63
2022/10/08 06:02:20;;;;;;;74.93;37.88;;;;;;;10.15;100.00;101670.47;5072237;28;20030;-64
2022/10/08 06:04:48;;;;;;;78.78;39.40;;;;;;;10.17;100.00;101689.91;5072356;28;20146;-63
2022/10/08 06:07:13;;;;;;;77.55;38.92;;;;;;;10.09;100.00;101676.53;5072597;28;20426;-66
2022/10/08 06:09:39;;;;;;;76.75;37.05;;;;;;;10.05;100.00;101686.16;5071882;28;20029;-64
2022/10/08 06:12:05;;;;;;;77.13;38.55;;;;;;;9.99;100.00;101686.03;5070198;28;20056;-64
2022/10/08 06:14:30;;;;;;;78.35;38.67;;;;;;;9.97;100.00;101687.75;5071600;28;20063;-65
2022/10/08 06:16:57;;;;;;;77.07;37.60;;;;;;;9.94;100.00;101696.47;5072137;28;20084;-65
2022/10/08 06:19:22;;;;;;;79.13;38.25;;;;;;;9.95;100.00;101702.69;5072463;28;20059;-66
2022/10/08 06:21:48;;;;;;;84.05;38.42;;;;;;;9.94;100.00;101704.41;5071876;28;20024;-67
2022/10/08 06:24:14;;;;;;;84.32;39.17;;;;;;;9.98;100.00;101713.31;5071068;28;20028;-65
2022/10/08 06:26:41;;;;;;;75.95;38.33;;;;;;;9.99;100.00;101712.44;5071816;28;20020;-64
2022/10/08 06:29:09;;;;;;;77.22;37.95;;;;;;;9.98;100.00;101715.94;5071940;28;20115;-64
2022/10/08 06:31:35;;;;;;;79.35;38.72;;;;;;;9.98;100.00;101715.06;5072042;28;20102;-66
2022/10/08 06:34:04;;;;;;;74.80;37.42;;;;;;;9.97;100.00;101724.72;5071808;28;20163;-66
2022/10/08 06:36:30;;;;;;;82.32;39.50;;;;;;;10.03;100.00;101729.25;5071178;28;20059;-65
2022/10/08 06:38:58;;;;;;;78.45;38.85;;;;;;;10.06;100.00;101740.78;5070617;28;20435;-66
2022/10/08 06:41:24;;;;;;;78.22;38.10;;;;;;;10.04;100.00;101745.13;5070172;28;20032;-64
2022/10/08 06:43:50;;;;;;;78.32;37.40;;;;;;;10.02;100.00;101738.00;5071444;28;20021;-63
2022/10/08 06:46:17;;;;;;;75.55;37.45;;;;;;;9.96;100.00;101744.09;5072101;28;20025;-66
2022/10/08 06:48:42;;;;;;;75.32;36.97;;;;;;;9.96;100.00;101746.72;5070842;28;20100;-64
2022/10/08 06:51:13;;;;;;;75.90;38.17;;;;;;;10.01;100.00;101752.09;5071647;28;20107;-63
2022/10/08 06:53:38;;;;;;;74.63;36.90;;;;;;;10.02;100.00;101759.16;5071071;28;20503;-64
2022/10/08 06:56:06;;;;;;;72.25;36.80;;;;;;;10.04;100.00;101758.31;5071935;28;20029;-63
2022/10/08 06:58:36;;;;;;;69.30;36.70;;;;;;;10.06;100.00;101766.28;5070707;28;20028;-63
2022/10/08 07:01:07;;;;;;;72.57;36.67;;;;;;;10.14;100.00;101774.41;5071326;28;20017;-63
2022/10/08 07:03:33;;;;;;;66.07;35.55;;;;;;;10.22;100.00;101781.63;5070955;28;20024;-64
2022/10/08 07:06:04;;;;;;;63.97;33.70;;;;;;;10.27;100.00;101784.34;5071805;28;20029;-64
2022/10/08 07:08:30;;;;;;;63.15;33.42;;;;;;;10.32;100.00;101795.00;5071392;28;20475;-64
2022/10/08 07:11:03;;;;;;;56.13;31.60;;;;;;;10.30;100.00;101797.63;5071347;28;20024;-64
2022/10/08 07:13:28;;;;;;;55.67;30.38;;;;;;;10.29;100.00;101803.75;5069267;28;20135;-65
2022/10/08 07:16:07;;;;;;;54.15;29.63;;;;;;;10.29;100.00;101809.03;5071333;28;20536;-64
2022/10/08 07:18:35;;;;;;;49.67;28.65;;;;;;;10.27;100.00;101818.72;5070083;28;20438;-64
2022/10/08 07:21:00;;;;;;;52.33;28.83;;;;;;;10.28;100.00;101812.53;5071690;28;20013;-64
2022/10/08 07:23:26;;;;;;;46.97;27.80;;;;;;;10.30;100.00;101813.47;5070886;28;20048;-64
2022/10/08 07:26:01;;;;;;;46.60;27.00;;;;;;;10.29;100.00;101816.97;5071628;28;20094;-65
2022/10/08 07:28:29;;;;;;;39.53;22.55;;;;;;;10.28;100.00;101825.75;5065902;28;20418;-67
2022/10/08 07:30:54;;;;;;;39.75;23.02;;;;;;;10.31;100.00;101820.56;5068383;28;20475;-64
2022/10/08 07:33:20;;;;;;;39.53;22.42;;;;;;;10.32;100.00;101819.69;5070675;28;20063;-65
2022/10/08 07:35:46;;;;;;;38.05;22.05;;;;;;;10.38;100.00;101833.09;5070923;28;20031;-64
2022/10/08 07:38:11;;;;;;;38.63;20.65;;;;;;;10.40;100.00;101827.81;5071368;28;20024;-65
2022/10/08 07:40:37;;;;;;;33.97;18.75;;;;;;;10.48;100.00;101835.91;5071549;28;20032;-64
2022/10/08 07:43:03;;;;;;;31.90;15.88;;;;;;;10.57;100.00;101846.66;5070998;28;20033;-65
2022/10/08 07:45:29;;;;;;;28.77;13.63;;;;;;;10.66;100.00;101840.66;5071376;28;20031;-64
2022/10/08 07:47:54;;;;;;;31.20;13.00;;;;;;;10.76;100.00;101845.25;5071105;28;20029;-65
2022/10/08 07:50:19;;;;;;;26.50;11.40;;;;;;;10.84;100.00;101848.09;5071009;28;20475;-64
2022/10/08 07:52:45;;;;;;;27.95;10.55;;;;;;;10.90;100.00;101849.06;5070925;28;20056;-63
2022/10/08 07:55:10;;;;;;;25.90;9.70;;;;;;;10.93;100.00;101846.47;5070624;28;20031;-64
2022/10/08 07:57:35;;;;;;;25.75;9.10;;;;;;;10.99;100.00;101853.63;5071164;28;20432;-64
2022/10/08 08:00:01;;;;;;;24.80;9.02;;;;;;;11.07;100.00;101846.75;5073456;28;20036;-64
2022/10/08 08:02:26;;;;;;;24.02;8.70;;;;;;;11.23;100.00;101855.84;5074703;28;20111;-64
2022/10/08 08:04:51;;;;;;;24.15;8.30;;;;;;;11.23;100.00;101852.31;5073748;28;20443;-63
2022/10/08 08:07:16;;;;;;;22.60;8.15;;;;;;;11.33;100.00;101870.16;5073819;28;20090;-64
2022/10/08 08:09:42;;;;;;;24.27;8.02;;;;;;;11.35;100.00;101857.81;5074196;28;20031;-65
2022/10/08 08:12:07;;;;;;;23.27;7.40;;;;;;;11.45;100.00;101867.69;5073556;28;20025;-63
2022/10/08 08:14:33;;;;;;;20.48;6.05;;;;;;;11.42;100.00;101866.78;5073917;28;20049;-64
2022/10/08 08:16:58;;;;;;;23.25;6.55;;;;;;;11.46;100.00;101868.59;5074461;28;20031;-64
2022/10/08 08:19:23;;;;;;;20.67;6.35;;;;;;;11.48;100.00;101881.00;5074544;28;20025;-63
2022/10/08 08:21:48;;;;;;;23.20;6.38;;;;;;;11.60;100.00;101882.06;5074505;28;20029;-64
2022/10/08 08:24:15;;;;;;;22.08;6.40;;;;;;;11.66;100.00;101884.81;5073472;28;20043;-63
2022/10/08 08:26:41;;;;;;;22.65;6.63;;;;;;;11.76;100.00;101880.56;5074603;28;20024;-63
2022/10/08 08:29:11;;;;;;;22.70;6.43;;;;;;;11.78;100.00;101894.72;5074394;28;20029;-66
2022/10/08 08:31:42;;;;;;;21.25;6.10;;;;;;;11.85;100.00;101897.50;5074139;28;20120;-67
2022/10/08 08:34:10;;;;;;;20.45;6.07;;;;;;;11.99;100.00;101907.44;5072521;28;20028;-66
2022/10/08 08:36:40;;;;;;;21.60;5.88;;;;;;;12.19;100.00;101897.16;5071076;28;20017;-67
2022/10/08 08:39:09;;;;;;;19.55;5.43;;;;;;;12.35;100.00;101908.88;5072219;28;20029;-66
2022/10/08 08:41:59;;;;;;;20.00;5.03;;;;;;;12.50;100.00;101917.00;5072505;28;20021;-65
2022/10/08 08:44:35;;;;;;;18.45;4.75;;;;;;;12.81;100.00;101919.16;5071025;28;20131;-66
2022/10/08 08:47:04;;;;;;;20.58;4.38;;;;;;;12.84;100.00;101912.16;5073314;28;20056;-67
2022/10/08 08:49:51;;;;;;;18.63;3.97;;;;;;;12.96;100.00;101929.06;5073268;28;20145;-66
2022/10/08 08:52:21;;;;;;;19.88;4.70;;;;;;;13.09;100.00;101933.63;5071798;28;20021;-67
2022/10/08 08:54:49;;;;;;;18.52;3.65;;;;;;;13.10;100.00;101921.28;5071148;28;20036;-67
2022/10/08 08:57:41;;;;;;;17.23;3.85;;;;;;;13.15;100.00;101923.13;5073497;28;20032;-67
2022/10/08 09:00:18;;;;;;;19.35;4.10;;;;;;;12.94;100.00;101928.19;5073611;28;20052;-67
2022/10/08 09:03:04;;;;;;;17.45;3.50;;;;;;;13.13;100.00;101931.94;5073462;28;20111;-67
2022/10/08 09:05:37;;;;;;;19.23;3.60;;;;;;;13.68;100.00;101943.13;5073520;28;20024;-67
2022/10/08 09:08:11;;;;;;;;;;;;;;;14.16;100.00;101927.56;5073414;28;20036;-67
2022/10/08 09:11:00;;;;;;;17.98;3.10;;;;;;;14.12;100.00;101931.06;5072515;28;20110;-67
2022/10/08 09:13:38;;;;;;;18.30;3.13;;;;;;;13.83;100.00;101930.84;5072400;28;20082;-67
2022/10/08 09:16:03;;;;;;;15.93;2.88;;;;;;;13.72;100.00;101929.00;5073456;28;20033;-67
2022/10/08 09:18:29;;;;;;;16.10;2.55;;;;;;;13.84;100.00;101935.31;5073196;28;20467;-67
2022/10/08 09:20:54;;;;;;;17.42;2.80;;;;;;;13.99;100.00;101955.78;5073340;28;20471;-67
2022/10/08 09:23:22;;;;;;;9.95;2.50;;;;;;;14.39;100.00;101948.97;5073071;28;20075;-67
2022/10/08 09:25:55;;;;;;;13.60;2.40;;;;;;;14.78;100.00;101962.50;5069413;28;20028;-67
2022/10/08 09:28:41;;;;;;;16.25;2.58;;;;;;;14.53;100.00;101956.16;5072851;28;20498;-66
2022/10/08 09:31:26;;;;;;;15.15;2.78;;;;;;;14.28;100.00;101962.22;5072839;28;20031;-67
2022/10/08 09:33:54;;;;;;;16.45;2.55;;;;;;;14.46;100.00;101968.53;5070646;28;20116;-65
2022/10/08 09:36:40;;;;;;;13.98;2.40;;;;;;;14.69;100.00;101967.78;5072936;28;20126;-67
2022/10/08 09:39:24;;;;;;;16.85;2.85;;;;;;;15.57;100.00;101968.97;5070044;28;20471;-66
2022/10/08 09:42:05;;;;;;;16.00;2.35;;;;;;;16.48;100.00;101958.28;5070032;28;20394;-66
2022/10/08 09:44:49;;;;;;;14.45;2.50;;;;;;;16.95;100.00;101976.84;5070814;28;20060;-65
2022/10/08 09:47:19;;;;;;;16.70;2.60;;;;;;;17.30;100.00;101971.34;5072539;28;20073;-62
2022/10/08 09:49:50;;;;;;;13.98;2.30;;;;;;;16.86;100.00;101981.31;5072115;28;20020;-63
2022/10/08 09:52:24;;;;;;;15.77;2.50;;;;;;;17.22;100.00;101994.53;5072346;28;20481;-63
2022/10/08 09:55:07;;;;;;;17.25;2.63;;;;;;;17.54;100.00;101999.69;5072316;28;20036;-63
2022/10/08 09:57:33;;;;;;;;;;;;;;;17.93;100.00;102002.13;5072890;28;20480;-63
2022/10/08 10:00:01;;;;;;;10.90;2.30;;;;;;;17.68;100.00;101999.59;5072523;28;19920;-62
2022/10/08 10:02:35;;;;;;;13.10;2.50;;;;;;;18.25;100.00;102006.31;5070863;28;20035;-62
2022/10/08 10:05:04;;;;;;;14.38;2.55;;;;;;;18.70;100.00;102003.16;5069289;28;20055;-62
2022/10/08 10:07:44;;;;;;;11.68;2.40;;;;;;;19.33;99.09;102013.16;5072557;28;20024;-62
2022/10/08 10:10:17;;;;;;;13.95;2.38;;;;;;;19.03;64.56;102015.31;5072149;28;20560;-62
2022/10/08 10:12:47;;;;;;;12.10;2.50;;;;;;;18.62;66.11;102011.28;5071713;28;20466;-62
2022/10/08 10:15:25;;;;;;;12.32;2.13;;;;;;;19.19;64.29;102012.44;5071647;28;20025;-63
2022/10/08 10:17:58;;;;;;;13.55;2.35;;;;;;;19.47;61.20;102010.25;5072081;28;20024;-63
2022/10/08 10:20:33;;;;;;;14.18;2.40;;;;;;;19.58;60.44;102013.69;5072510;28;20085;-63
2022/10/08 10:23:10;;;;;;;12.65;2.13;;;;;;;19.34;58.98;101997.03;5071471;28;20475;-63
2022/10/08 10:25:51;;;;;;;11.15;2.10;;;;;;;18.18;62.29;102005.47;5071785;28;20028;-62
2022/10/08 10:28:32;;;;;;;11.27;2.10;;;;;;;19.17;60.92;102016.03;5070515;28;20050;-63
2022/10/08 10:31:04;;;;;;;8.68;2.00;;;;;;;20.31;56.87;102020.59;5071952;28;20471;-62
2022/10/08 10:33:33;;;;;;;11.65;2.20;;;;;;;20.80;50.02;102022.38;5071464;28;20043;-62
2022/10/08 10:36:03;;;;;;;10.52;2.30;;;;;;;21.35;45.17;102030.22;5072024;28;20036;-63
2022/10/08 10:38:31;;;;;;;11.93;2.10;;;;;;;21.48;45.47;102020.97;5071204;28;20364;-62
2022/10/08 10:41:25;;;;;;;8.25;2.00;;;;;;;21.92;43.34;102018.16;5071921;28;20040;-64
2022/10/08 10:43:56;;;;;;;11.43;2.10;;;;;;;20.54;44.56;102029.09;5069737;28;20522;-64
2022/10/08 10:46:28;;;;;;;11.50;2.15;;;;;;;20.55;44.99;102030.00;5071740;28;20031;-63
2022/10/08 10:48:54;;;;;;;;;;;;;;;21.91;44.77;102029.84;5071970;28;20367;-64
2022/10/08 10:51:44;;;;;;;10.68;2.03;;;;;;;21.91;42.71;102036.09;5071874;28;19923;-65
2022/10/08 10:54:30;;;;;;;10.93;2.10;;;;;;;21.74;43.03;102030.25;5070888;28;20364;-63
2022/10/08 10:57:15;;;;;;;12.90;2.10;;;;;;;21.03;44.48;102034.50;5070945;28;20032;-62
2022/10/08 10:59:47;;;;;;;11.88;2.40;;;;;;;19.56;45.59;102034.28;5070919;28;20028;-63
2022/10/08 11:02:41;;;;;;;12.13;2.30;;;;;;;20.87;43.61;102029.41;5071548;28;20025;-63
2022/10/08 11:05:14;;;;;;;11.77;2.20;;;;;;;21.95;41.64;102031.53;5069475;28;20035;-63
2022/10/08 11:08:12;;;;;;;11.70;2.25;;;;;;;21.38;42.79;102036.41;5068169;28;20025;-62
2022/10/08 11:11:01;;;;;;;9.02;2.00;;;;;;;19.84;41.99;102048.19;5071503;28;20025;-62
2022/10/08 11:13:45;;;;;;;8.60;2.08;;;;;;;19.42;43.18;102041.63;5069435;28;20106;-63
2022/10/08 11:16:16;;;;;;;9.98;2.20;;;;;;;19.75;42.82;102040.25;5071593;28;20082;-63
2022/10/08 11:18:50;;;;;;;10.88;2.10;;;;;;;21.29;42.47;102036.63;5071610;28;20059;-62
2022/10/08 11:21:49;;;;;;;10.93;2.08;;;;;;;23.25;38.18;102038.88;5069427;28;20028;-63
2022/10/08 11:24:34;;;;;;;12.00;2.10;;;;;;;23.91;37.05;102044.03;5070039;28;20052;-62
2022/10/08 11:27:11;;;;;;;7.95;1.90;;;;;;;24.41;36.72;102037.88;5070940;28;20063;-63
2022/10/08 11:30:12;;;;;;;11.48;2.10;;;;;;;25.36;34.52;102042.50;5071517;28;20113;-62